sensor_id;sensor_type;location;lat;lon;timestamp;P1;durP1;ratioP1;P2;durP2;ratioP2
22240;SDS011;11289;52.524;13.694;2023-11-19T00:00:26;8.98;;;6.70;;
22240;SDS011;11289;52.524;13.694;2023-11-19T00:02:52;9.07;;;6.82;;
22240;SDS011;11289;52.524;13.694;2023-11-19T00:05:18;9.18;;;6.53;;
22240;SDS011;11289;52.524;13.694;2023-11-19T00:07:44;8.40;;;6.03;;
22240;SDS011;11289;52.524;13.694;2023-11-19T00:10:11;8.65;;;6.07;;
22240;SDS011;11289;52.524;13.694;2023-11-19T00:12:47;8.02;;;5.75;;
22240;SDS011;11289;52.524;13.694;2023-11-19T00:15:14;9.40;;;6.55;;
22240;SDS011;11289;52.524;13.694;2023-11-19T00:17:41;12.38;;;6.07;;
22240;SDS011;11289;52.524;13.694;2023-11-19T00:20:19;9.10;;;6.40;;
22240;SDS011;11289;52.524;13.694;2023-11-19T00:22:47;9.38;;;6.13;;
22240;SDS011;11289;52.524;13.694;2023-11-19T00:25:16;9.57;;;6.50;;
22240;SDS011;11289;52.524;13.694;2023-11-19T00:27:43;9.77;;;6.68;;
22240;SDS011;11289;52.524;13.694;2023-11-19T00:30:12;9.25;;;6.18;;
22240;SDS011;11289;52.524;13.694;2023-11-19T00:32:40;7.95;;;6.25;;
22240;SDS011;11289;52.524;13.694;2023-11-19T00:35:07;8.60;;;6.47;;
22240;SDS011;11289;52.524;13.694;2023-11-19T00:37:33;7.85;;;5.72;;
22240;SDS011;11289;52.524;13.694;2023-11-19T00:39:59;10.90;;;6.85;;
22240;SDS011;11289;52.524;13.694;2023-11-19T00:42:25;10.70;;;6.22;;
22240;SDS011;11289;52.524;13.694;2023-11-19T00:44:51;11.20;;;6.82;;
22240;SDS011;11289;52.524;13.694;2023-11-19T00:47:18;7.95;;;6.28;;
22240;SDS011;11289;52.524;13.694;2023-11-19T00:49:47;8.95;;;6.00;;
22240;SDS011;11289;52.524;13.694;2023-11-19T00:52:14;8.43;;;6.30;;
22240;SDS011;11289;52.524;13.694;2023-11-19T00:54:41;8.35;;;6.03;;
22240;SDS011;11289;52.524;13.694;2023-11-19T00:57:07;8.60;;;6.15;;
22240;SDS011;11289;52.524;13.694;2023-11-19T00:59:33;8.48;;;5.55;;
22240;SDS011;11289;52.524;13.694;2023-11-19T01:01:59;9.73;;;6.47;;
22240;SDS011;11289;52.524;13.694;2023-11-19T01:04:35;7.30;;;5.35;;
22240;SDS011;11289;52.524;13.694;2023-11-19T01:07:01;9.23;;;5.40;;
22240;SDS011;11289;52.524;13.694;2023-11-19T01:09:29;9.63;;;7.07;;
22240;SDS011;11289;52.524;13.694;2023-11-19T01:11:58;9.27;;;6.32;;
22240;SDS011;11289;52.524;13.694;2023-11-19T01:14:26;7.45;;;5.72;;
22240;SDS011;11289;52.524;13.694;2023-11-19T01:16:52;8.10;;;6.03;;
22240;SDS011;11289;52.524;13.694;2023-11-19T01:19:21;9.25;;;6.47;;
22240;SDS011;11289;52.524;13.694;2023-11-19T01:21:48;7.18;;;5.47;;
22240;SDS011;11289;52.524;13.694;2023-11-19T01:24:14;9.88;;;5.97;;
22240;SDS011;11289;52.524;13.694;2023-11-19T01:26:41;10.30;;;6.15;;
22240;SDS011;11289;52.524;13.694;2023-11-19T01:29:14;7.45;;;5.50;;
22240;SDS011;11289;52.524;13.694;2023-11-19T01:31:41;10.57;;;7.18;;
22240;SDS011;11289;52.524;13.694;2023-11-19T01:34:08;7.80;;;5.70;;
22240;SDS011;11289;52.524;13.694;2023-11-19T01:36:34;8.85;;;6.03;;
22240;SDS011;11289;52.524;13.694;2023-11-19T01:39:00;11.32;;;6.35;;
22240;SDS011;11289;52.524;13.694;2023-11-19T01:41:27;8.13;;;5.50;;
22240;SDS011;11289;52.524;13.694;2023-11-19T01:43:53;8.23;;;5.72;;
22240;SDS011;11289;52.524;13.694;2023-11-19T01:46:19;10.52;;;6.32;;
22240;SDS011;11289;52.524;13.694;2023-11-19T01:48:46;7.88;;;5.57;;
22240;SDS011;11289;52.524;13.694;2023-11-19T01:51:12;8.07;;;5.80;;
22240;SDS011;11289;52.524;13.694;2023-11-19T01:53:42;7.00;;;5.38;;
22240;SDS011;11289;52.524;13.694;2023-11-19T01:56:09;8.38;;;6.18;;
22240;SDS011;11289;52.524;13.694;2023-11-19T01:58:37;7.47;;;5.13;;
22240;SDS011;11289;52.524;13.694;2023-11-19T02:01:05;7.88;;;6.13;;
22240;SDS011;11289;52.524;13.694;2023-11-19T02:03:32;7.28;;;5.70;;
22240;SDS011;11289;52.524;13.694;2023-11-19T02:05:59;8.02;;;6.30;;
22240;SDS011;11289;52.524;13.694;2023-11-19T02:08:26;7.95;;;5.75;;
22240;SDS011;11289;52.524;13.694;2023-11-19T02:10:52;7.60;;;5.25;;
22240;SDS011;11289;52.524;13.694;2023-11-19T02:13:18;8.23;;;4.85;;
22240;SDS011;11289;52.524;13.694;2023-11-19T02:15:44;7.25;;;5.05;;
22240;SDS011;11289;52.524;13.694;2023-11-19T02:18:17;9.68;;;6.25;;
22240;SDS011;11289;52.524;13.694;2023-11-19T02:20:50;7.80;;;5.35;;
22240;SDS011;11289;52.524;13.694;2023-11-19T02:23:17;9.15;;;5.55;;
22240;SDS011;11289;52.524;13.694;2023-11-19T02:28:24;8.05;;;5.13;;
22240;SDS011;11289;52.524;13.694;2023-11-19T02:30:50;7.88;;;5.50;;
22240;SDS011;11289;52.524;13.694;2023-11-19T02:33:16;6.78;;;5.55;;
22240;SDS011;11289;52.524;13.694;2023-11-19T02:35:42;7.15;;;5.30;;
22240;SDS011;11289;52.524;13.694;2023-11-19T02:38:08;9.75;;;6.05;;
22240;SDS011;11289;52.524;13.694;2023-11-19T02:40:34;8.05;;;5.93;;
22240;SDS011;11289;52.524;13.694;2023-11-19T02:43:00;8.18;;;5.93;;
22240;SDS011;11289;52.524;13.694;2023-11-19T02:45:30;9.05;;;5.25;;
22240;SDS011;11289;52.524;13.694;2023-11-19T02:47:56;7.72;;;5.78;;
22240;SDS011;11289;52.524;13.694;2023-11-19T02:50:22;8.93;;;5.30;;
22240;SDS011;11289;52.524;13.694;2023-11-19T02:52:52;9.82;;;6.45;;
22240;SDS011;11289;52.524;13.694;2023-11-19T02:55:21;7.93;;;6.18;;
22240;SDS011;11289;52.524;13.694;2023-11-19T02:57:49;9.40;;;6.05;;
22240;SDS011;11289;52.524;13.694;2023-11-19T03:02:43;8.48;;;5.28;;
22240;SDS011;11289;52.524;13.694;2023-11-19T03:05:14;8.40;;;5.72;;
22240;SDS011;11289;52.524;13.694;2023-11-19T03:07:41;10.02;;;6.03;;
22240;SDS011;11289;52.524;13.694;2023-11-19T03:10:10;9.88;;;5.80;;
22240;SDS011;11289;52.524;13.694;2023-11-19T03:12:39;7.55;;;5.25;;
22240;SDS011;11289;52.524;13.694;2023-11-19T03:15:06;10.20;;;6.07;;
22240;SDS011;11289;52.524;13.694;2023-11-19T03:17:33;9.93;;;5.68;;
22240;SDS011;11289;52.524;13.694;2023-11-19T03:20:00;8.82;;;5.38;;
22240;SDS011;11289;52.524;13.694;2023-11-19T03:22:26;6.70;;;5.10;;
22240;SDS011;11289;52.524;13.694;2023-11-19T03:24:52;8.98;;;5.90;;
22240;SDS011;11289;52.524;13.694;2023-11-19T03:27:18;8.05;;;4.95;;
22240;SDS011;11289;52.524;13.694;2023-11-19T03:29:44;10.43;;;5.57;;
22240;SDS011;11289;52.524;13.694;2023-11-19T03:32:10;6.85;;;4.45;;
22240;SDS011;11289;52.524;13.694;2023-11-19T03:34:37;8.05;;;5.28;;
22240;SDS011;11289;52.524;13.694;2023-11-19T03:37:03;6.30;;;4.82;;
22240;SDS011;11289;52.524;13.694;2023-11-19T03:39:29;7.40;;;5.10;;
22240;SDS011;11289;52.524;13.694;2023-11-19T03:41:55;5.97;;;4.68;;
22240;SDS011;11289;52.524;13.694;2023-11-19T03:44:21;7.03;;;4.85;;
22240;SDS011;11289;52.524;13.694;2023-11-19T03:46:47;8.00;;;4.75;;
22240;SDS011;11289;52.524;13.694;2023-11-19T03:49:13;6.82;;;4.80;;
22240;SDS011;11289;52.524;13.694;2023-11-19T03:51:39;7.30;;;4.63;;
22240;SDS011;11289;52.524;13.694;2023-11-19T03:54:05;6.47;;;4.35;;
22240;SDS011;11289;52.524;13.694;2023-11-19T03:56:32;6.28;;;4.53;;
22240;SDS011;11289;52.524;13.694;2023-11-19T03:58:58;6.95;;;4.53;;
22240;SDS011;11289;52.524;13.694;2023-11-19T04:01:24;7.47;;;4.65;;
22240;SDS011;11289;52.524;13.694;2023-11-19T04:03:50;5.68;;;4.35;;
22240;SDS011;11289;52.524;13.694;2023-11-19T04:06:16;6.25;;;4.35;;
22240;SDS011;11289;52.524;13.694;2023-11-19T04:08:42;8.98;;;5.18;;
22240;SDS011;11289;52.524;13.694;2023-11-19T04:11:08;8.68;;;5.63;;
22240;SDS011;11289;52.524;13.694;2023-11-19T04:13:34;6.45;;;4.45;;
22240;SDS011;11289;52.524;13.694;2023-11-19T04:16:00;7.30;;;4.97;;
22240;SDS011;11289;52.524;13.694;2023-11-19T04:18:26;6.07;;;4.38;;
22240;SDS011;11289;52.524;13.694;2023-11-19T04:20:52;8.32;;;5.32;;
22240;SDS011;11289;52.524;13.694;2023-11-19T04:23:18;9.02;;;4.70;;
22240;SDS011;11289;52.524;13.694;2023-11-19T04:25:44;8.13;;;5.60;;
22240;SDS011;11289;52.524;13.694;2023-11-19T04:28:10;7.57;;;5.47;;
22240;SDS011;11289;52.524;13.694;2023-11-19T04:30:36;7.85;;;5.53;;
22240;SDS011;11289;52.524;13.694;2023-11-19T04:33:03;11.35;;;5.80;;
22240;SDS011;11289;52.524;13.694;2023-11-19T04:35:29;8.10;;;5.88;;
22240;SDS011;11289;52.524;13.694;2023-11-19T04:37:55;7.78;;;5.75;;
22240;SDS011;11289;52.524;13.694;2023-11-19T04:40:23;9.13;;;5.38;;
22240;SDS011;11289;52.524;13.694;2023-11-19T04:42:49;7.03;;;5.50;;
22240;SDS011;11289;52.524;13.694;2023-11-19T04:45:14;10.48;;;6.20;;
22240;SDS011;11289;52.524;13.694;2023-11-19T04:47:42;9.45;;;5.45;;
22240;SDS011;11289;52.524;13.694;2023-11-19T04:50:08;6.85;;;4.82;;
22240;SDS011;11289;52.524;13.694;2023-11-19T04:52:38;7.82;;;5.70;;
22240;SDS011;11289;52.524;13.694;2023-11-19T04:55:10;6.97;;;5.20;;
22240;SDS011;11289;52.524;13.694;2023-11-19T04:57:37;8.45;;;5.13;;
22240;SDS011;11289;52.524;13.694;2023-11-19T05:00:04;9.75;;;5.68;;
22240;SDS011;11289;52.524;13.694;2023-11-19T05:02:30;7.25;;;5.03;;
22240;SDS011;11289;52.524;13.694;2023-11-19T05:04:56;8.68;;;5.57;;
22240;SDS011;11289;52.524;13.694;2023-11-19T05:07:22;8.45;;;5.78;;
22240;SDS011;11289;52.524;13.694;2023-11-19T05:09:48;8.18;;;5.65;;
22240;SDS011;11289;52.524;13.694;2023-11-19T05:12:14;8.95;;;6.90;;
22240;SDS011;11289;52.524;13.694;2023-11-19T05:14:40;9.05;;;5.53;;
22240;SDS011;11289;52.524;13.694;2023-11-19T05:17:13;10.75;;;6.68;;
22240;SDS011;11289;52.524;13.694;2023-11-19T05:19:39;10.68;;;6.70;;
22240;SDS011;11289;52.524;13.694;2023-11-19T05:22:05;9.60;;;6.40;;
22240;SDS011;11289;52.524;13.694;2023-11-19T05:24:31;9.55;;;6.32;;
22240;SDS011;11289;52.524;13.694;2023-11-19T05:26:57;8.60;;;6.00;;
22240;SDS011;11289;52.524;13.694;2023-11-19T05:29:23;9.43;;;5.75;;
22240;SDS011;11289;52.524;13.694;2023-11-19T05:31:50;11.52;;;6.70;;
22240;SDS011;11289;52.524;13.694;2023-11-19T05:34:15;8.63;;;5.90;;
22240;SDS011;11289;52.524;13.694;2023-11-19T05:36:41;9.90;;;6.78;;
22240;SDS011;11289;52.524;13.694;2023-11-19T05:39:07;9.60;;;7.07;;
22240;SDS011;11289;52.524;13.694;2023-11-19T05:41:34;8.05;;;6.15;;
22240;SDS011;11289;52.524;13.694;2023-11-19T05:44:00;9.23;;;4.85;;
22240;SDS011;11289;52.524;13.694;2023-11-19T05:46:26;8.38;;;5.97;;
22240;SDS011;11289;52.524;13.694;2023-11-19T05:48:52;7.28;;;5.82;;
22240;SDS011;11289;52.524;13.694;2023-11-19T05:51:18;9.27;;;5.97;;
22240;SDS011;11289;52.524;13.694;2023-11-19T05:53:44;8.30;;;5.50;;
22240;SDS011;11289;52.524;13.694;2023-11-19T05:56:13;7.85;;;6.07;;
22240;SDS011;11289;52.524;13.694;2023-11-19T05:58:41;11.63;;;5.97;;
22240;SDS011;11289;52.524;13.694;2023-11-19T06:01:07;7.28;;;5.30;;
22240;SDS011;11289;52.524;13.694;2023-11-19T06:03:33;8.52;;;5.55;;
22240;SDS011;11289;52.524;13.694;2023-11-19T06:05:59;8.63;;;5.45;;
22240;SDS011;11289;52.524;13.694;2023-11-19T06:08:25;7.82;;;6.00;;
22240;SDS011;11289;52.524;13.694;2023-11-19T06:10:52;7.30;;;5.25;;
22240;SDS011;11289;52.524;13.694;2023-11-19T06:13:18;7.60;;;5.30;;
22240;SDS011;11289;52.524;13.694;2023-11-19T06:15:45;7.95;;;5.55;;
22240;SDS011;11289;52.524;13.694;2023-11-19T06:18:11;8.73;;;4.70;;
22240;SDS011;11289;52.524;13.694;2023-11-19T06:20:40;6.28;;;4.90;;
22240;SDS011;11289;52.524;13.694;2023-11-19T06:23:06;7.95;;;5.68;;
22240;SDS011;11289;52.524;13.694;2023-11-19T06:25:32;7.70;;;5.18;;
22240;SDS011;11289;52.524;13.694;2023-11-19T06:27:58;7.53;;;4.65;;
22240;SDS011;11289;52.524;13.694;2023-11-19T06:30:24;6.45;;;4.32;;
22240;SDS011;11289;52.524;13.694;2023-11-19T06:32:51;7.85;;;4.30;;
22240;SDS011;11289;52.524;13.694;2023-11-19T06:35:17;7.88;;;4.90;;
22240;SDS011;11289;52.524;13.694;2023-11-19T06:37:43;8.02;;;4.75;;
22240;SDS011;11289;52.524;13.694;2023-11-19T06:40:09;6.43;;;4.25;;
22240;SDS011;11289;52.524;13.694;2023-11-19T06:42:35;6.35;;;3.97;;
22240;SDS011;11289;52.524;13.694;2023-11-19T06:45:01;6.80;;;4.25;;
22240;SDS011;11289;52.524;13.694;2023-11-19T06:47:28;6.85;;;4.55;;
22240;SDS011;11289;52.524;13.694;2023-11-19T06:49:54;6.05;;;4.53;;
22240;SDS011;11289;52.524;13.694;2023-11-19T06:52:20;9.18;;;4.45;;
22240;SDS011;11289;52.524;13.694;2023-11-19T06:54:47;7.05;;;4.65;;
22240;SDS011;11289;52.524;13.694;2023-11-19T06:57:13;5.85;;;4.13;;
22240;SDS011;11289;52.524;13.694;2023-11-19T06:59:39;5.10;;;4.18;;
22240;SDS011;11289;52.524;13.694;2023-11-19T07:02:06;6.95;;;3.42;;
22240;SDS011;11289;52.524;13.694;2023-11-19T07:04:33;6.53;;;4.25;;
22240;SDS011;11289;52.524;13.694;2023-11-19T07:06:59;5.68;;;4.13;;
22240;SDS011;11289;52.524;13.694;2023-11-19T07:09:25;7.45;;;4.55;;
22240;SDS011;11289;52.524;13.694;2023-11-19T07:11:51;6.15;;;3.47;;
22240;SDS011;11289;52.524;13.694;2023-11-19T07:14:18;5.97;;;4.10;;
22240;SDS011;11289;52.524;13.694;2023-11-19T07:16:44;6.68;;;4.20;;
22240;SDS011;11289;52.524;13.694;2023-11-19T07:19:12;6.55;;;3.75;;
22240;SDS011;11289;52.524;13.694;2023-11-19T07:21:41;6.53;;;3.60;;
22240;SDS011;11289;52.524;13.694;2023-11-19T07:24:09;5.45;;;3.70;;
22240;SDS011;11289;52.524;13.694;2023-11-19T07:26:36;6.40;;;4.30;;
22240;SDS011;11289;52.524;13.694;2023-11-19T07:29:06;5.68;;;3.75;;
22240;SDS011;11289;52.524;13.694;2023-11-19T07:31:33;6.70;;;4.20;;
22240;SDS011;11289;52.524;13.694;2023-11-19T07:33:59;7.40;;;5.05;;
22240;SDS011;11289;52.524;13.694;2023-11-19T07:36:25;9.20;;;3.50;;
22240;SDS011;11289;52.524;13.694;2023-11-19T07:38:51;6.68;;;4.35;;
22240;SDS011;11289;52.524;13.694;2023-11-19T07:41:16;5.90;;;3.72;;
22240;SDS011;11289;52.524;13.694;2023-11-19T07:43:43;5.43;;;3.63;;
22240;SDS011;11289;52.524;13.694;2023-11-19T07:46:10;5.05;;;3.53;;
22240;SDS011;11289;52.524;13.694;2023-11-19T07:48:39;5.22;;;3.72;;
22240;SDS011;11289;52.524;13.694;2023-11-19T07:51:05;4.85;;;3.90;;
22240;SDS011;11289;52.524;13.694;2023-11-19T07:53:31;3.97;;;2.88;;
22240;SDS011;11289;52.524;13.694;2023-11-19T07:55:58;4.50;;;2.85;;
22240;SDS011;11289;52.524;13.694;2023-11-19T07:58:25;5.22;;;3.28;;
22240;SDS011;11289;52.524;13.694;2023-11-19T08:00:51;4.38;;;3.17;;
22240;SDS011;11289;52.524;13.694;2023-11-19T08:03:17;4.65;;;3.08;;
22240;SDS011;11289;52.524;13.694;2023-11-19T08:05:47;3.47;;;2.88;;
22240;SDS011;11289;52.524;13.694;2023-11-19T08:08:14;6.57;;;3.28;;
22240;SDS011;11289;52.524;13.694;2023-11-19T08:10:40;4.75;;;3.17;;
22240;SDS011;11289;52.524;13.694;2023-11-19T08:13:06;4.15;;;3.30;;
22240;SDS011;11289;52.524;13.694;2023-11-19T08:15:33;4.45;;;3.17;;
22240;SDS011;11289;52.524;13.694;2023-11-19T08:17:59;4.15;;;3.08;;
22240;SDS011;11289;52.524;13.694;2023-11-19T08:20:25;5.63;;;3.47;;
22240;SDS011;11289;52.524;13.694;2023-11-19T08:22:50;4.78;;;2.78;;
22240;SDS011;11289;52.524;13.694;2023-11-19T08:25:16;7.43;;;3.65;;
22240;SDS011;11289;52.524;13.694;2023-11-19T08:27:43;7.70;;;4.78;;
22240;SDS011;11289;52.524;13.694;2023-11-19T08:30:09;7.90;;;5.22;;
22240;SDS011;11289;52.524;13.694;2023-11-19T08:32:36;7.70;;;4.68;;
22240;SDS011;11289;52.524;13.694;2023-11-19T08:35:02;5.82;;;3.42;;
22240;SDS011;11289;52.524;13.694;2023-11-19T08:37:28;4.82;;;3.03;;
22240;SDS011;11289;52.524;13.694;2023-11-19T08:39:54;3.90;;;2.92;;
22240;SDS011;11289;52.524;13.694;2023-11-19T08:42:20;6.07;;;3.50;;
22240;SDS011;11289;52.524;13.694;2023-11-19T08:44:50;4.35;;;2.85;;
22240;SDS011;11289;52.524;13.694;2023-11-19T08:47:19;3.67;;;2.97;;
22240;SDS011;11289;52.524;13.694;2023-11-19T08:49:45;4.65;;;3.35;;
22240;SDS011;11289;52.524;13.694;2023-11-19T08:52:11;5.28;;;3.60;;
22240;SDS011;11289;52.524;13.694;2023-11-19T08:54:37;5.45;;;3.75;;
22240;SDS011;11289;52.524;13.694;2023-11-19T08:57:03;5.10;;;3.28;;
22240;SDS011;11289;52.524;13.694;2023-11-19T08:59:30;11.25;;;6.50;;
22240;SDS011;11289;52.524;13.694;2023-11-19T09:01:56;6.25;;;4.53;;
22240;SDS011;11289;52.524;13.694;2023-11-19T09:04:22;4.85;;;3.85;;
22240;SDS011;11289;52.524;13.694;2023-11-19T09:06:48;5.55;;;3.85;;
22240;SDS011;11289;52.524;13.694;2023-11-19T09:09:14;4.80;;;3.53;;
22240;SDS011;11289;52.524;13.694;2023-11-19T09:11:40;6.40;;;4.05;;
22240;SDS011;11289;52.524;13.694;2023-11-19T09:14:06;5.28;;;4.38;;
22240;SDS011;11289;52.524;13.694;2023-11-19T09:16:32;9.60;;;5.13;;
22240;SDS011;11289;52.524;13.694;2023-11-19T09:18:58;6.40;;;4.18;;
22240;SDS011;11289;52.524;13.694;2023-11-19T09:21:25;6.90;;;4.18;;
22240;SDS011;11289;52.524;13.694;2023-11-19T09:23:52;5.45;;;4.47;;
22240;SDS011;11289;52.524;13.694;2023-11-19T09:26:19;9.50;;;4.13;;
22240;SDS011;11289;52.524;13.694;2023-11-19T09:28:45;6.30;;;4.68;;
22240;SDS011;11289;52.524;13.694;2023-11-19T09:31:18;6.35;;;4.75;;
22240;SDS011;11289;52.524;13.694;2023-11-19T09:33:44;7.57;;;5.35;;
22240;SDS011;11289;52.524;13.694;2023-11-19T09:36:13;6.47;;;3.97;;
22240;SDS011;11289;52.524;13.694;2023-11-19T09:38:43;6.55;;;4.63;;
22240;SDS011;11289;52.524;13.694;2023-11-19T09:41:09;8.23;;;5.07;;
22240;SDS011;11289;52.524;13.694;2023-11-19T09:43:38;5.78;;;4.47;;
22240;SDS011;11289;52.524;13.694;2023-11-19T09:46:06;7.97;;;5.07;;
22240;SDS011;11289;52.524;13.694;2023-11-19T09:48:35;4.78;;;4.28;;
22240;SDS011;11289;52.524;13.694;2023-11-19T09:51:06;5.13;;;4.15;;
22240;SDS011;11289;52.524;13.694;2023-11-19T09:53:36;8.40;;;5.10;;
22240;SDS011;11289;52.524;13.694;2023-11-19T09:56:03;6.20;;;4.25;;
22240;SDS011;11289;52.524;13.694;2023-11-19T09:58:30;7.85;;;5.82;;
22240;SDS011;11289;52.524;13.694;2023-11-19T10:00:59;6.80;;;4.68;;
22240;SDS011;11289;52.524;13.694;2023-11-19T10:03:32;7.47;;;4.93;;
22240;SDS011;11289;52.524;13.694;2023-11-19T10:06:04;6.82;;;4.00;;
22240;SDS011;11289;52.524;13.694;2023-11-19T10:08:32;7.05;;;4.75;;
22240;SDS011;11289;52.524;13.694;2023-11-19T10:10:59;7.20;;;4.65;;
22240;SDS011;11289;52.524;13.694;2023-11-19T10:13:28;9.35;;;4.45;;
22240;SDS011;11289;52.524;13.694;2023-11-19T10:15:57;6.07;;;4.35;;
22240;SDS011;11289;52.524;13.694;2023-11-19T10:18:24;9.25;;;6.18;;
22240;SDS011;11289;52.524;13.694;2023-11-19T10:20:51;7.63;;;4.68;;
22240;SDS011;11289;52.524;13.694;2023-11-19T10:23:17;7.32;;;4.70;;
22240;SDS011;11289;52.524;13.694;2023-11-19T10:25:43;6.80;;;5.18;;
22240;SDS011;11289;52.524;13.694;2023-11-19T10:28:09;5.10;;;4.07;;
22240;SDS011;11289;52.524;13.694;2023-11-19T10:30:35;7.63;;;4.57;;
22240;SDS011;11289;52.524;13.694;2023-11-19T10:33:08;6.68;;;4.75;;
22240;SDS011;11289;52.524;13.694;2023-11-19T10:35:37;7.00;;;4.45;;
22240;SDS011;11289;52.524;13.694;2023-11-19T10:38:20;4.97;;;3.65;;
22240;SDS011;11289;52.524;13.694;2023-11-19T10:40:49;6.88;;;3.58;;
22240;SDS011;11289;52.524;13.694;2023-11-19T10:43:17;6.72;;;4.00;;
22240;SDS011;11289;52.524;13.694;2023-11-19T10:45:43;7.25;;;4.35;;
22240;SDS011;11289;52.524;13.694;2023-11-19T10:48:09;8.05;;;3.70;;
22240;SDS011;11289;52.524;13.694;2023-11-19T10:50:38;6.10;;;3.30;;
22240;SDS011;11289;52.524;13.694;2023-11-19T10:53:07;5.10;;;3.45;;
22240;SDS011;11289;52.524;13.694;2023-11-19T10:55:34;6.47;;;3.42;;
22240;SDS011;11289;52.524;13.694;2023-11-19T10:58:07;7.57;;;4.00;;
22240;SDS011;11289;52.524;13.694;2023-11-19T11:01:18;6.22;;;3.72;;
22240;SDS011;11289;52.524;13.694;2023-11-19T11:03:29;8.27;;;3.45;;
22240;SDS011;11289;52.524;13.694;2023-11-19T11:06:05;7.07;;;3.50;;
22240;SDS011;11289;52.524;13.694;2023-11-19T11:08:31;7.38;;;3.75;;
22240;SDS011;11289;52.524;13.694;2023-11-19T11:11:01;8.73;;;3.17;;
22240;SDS011;11289;52.524;13.694;2023-11-19T11:13:30;6.40;;;3.10;;
22240;SDS011;11289;52.524;13.694;2023-11-19T11:15:57;9.95;;;3.67;;
22240;SDS011;11289;52.524;13.694;2023-11-19T11:18:24;6.22;;;3.40;;
22240;SDS011;11289;52.524;13.694;2023-11-19T11:21:00;12.30;;;3.38;;
22240;SDS011;11289;52.524;13.694;2023-11-19T11:28:57;10.15;;;3.15;;
22240;SDS011;11289;52.524;13.694;2023-11-19T11:36:32;11.32;;;3.08;;
22240;SDS011;11289;52.524;13.694;2023-11-19T11:39:08;14.13;;;3.30;;
22240;SDS011;11289;52.524;13.694;2023-11-19T11:41:34;8.77;;;3.10;;
22240;SDS011;11289;52.524;13.694;2023-11-19T11:44:00;16.90;;;3.20;;
22240;SDS011;11289;52.524;13.694;2023-11-19T11:49:02;6.93;;;3.03;;
22240;SDS011;11289;52.524;13.694;2023-11-19T11:54:10;16.13;;;3.30;;
22240;SDS011;11289;52.524;13.694;2023-11-19T12:02:07;12.75;;;2.97;;
22240;SDS011;11289;52.524;13.694;2023-11-19T12:04:34;12.00;;;2.92;;
22240;SDS011;11289;52.524;13.694;2023-11-19T12:07:05;15.55;;;3.53;;
22240;SDS011;11289;52.524;13.694;2023-11-19T12:09:40;7.30;;;3.03;;
22240;SDS011;11289;52.524;13.694;2023-11-19T12:12:07;9.85;;;3.15;;
22240;SDS011;11289;52.524;13.694;2023-11-19T12:20:00;9.52;;;3.28;;
22240;SDS011;11289;52.524;13.694;2023-11-19T12:22:27;9.65;;;3.20;;
22240;SDS011;11289;52.524;13.694;2023-11-19T12:24:55;16.17;;;3.75;;
22240;SDS011;11289;52.524;13.694;2023-11-19T12:27:22;11.35;;;3.40;;
22240;SDS011;11289;52.524;13.694;2023-11-19T12:29:48;12.20;;;3.70;;
22240;SDS011;11289;52.524;13.694;2023-11-19T12:32:15;16.27;;;4.35;;
22240;SDS011;11289;52.524;13.694;2023-11-19T12:34:41;15.30;;;3.35;;
22240;SDS011;11289;52.524;13.694;2023-11-19T12:37:07;14.32;;;4.38;;
22240;SDS011;11289;52.524;13.694;2023-11-19T12:39:35;13.88;;;3.67;;
22240;SDS011;11289;52.524;13.694;2023-11-19T12:42:01;19.40;;;4.55;;
22240;SDS011;11289;52.524;13.694;2023-11-19T12:44:27;18.98;;;4.60;;
22240;SDS011;11289;52.524;13.694;2023-11-19T12:49:26;15.05;;;3.60;;
22240;SDS011;11289;52.524;13.694;2023-11-19T12:51:52;16.38;;;4.32;;
22240;SDS011;11289;52.524;13.694;2023-11-19T12:54:18;15.70;;;3.80;;
22240;SDS011;11289;52.524;13.694;2023-11-19T12:56:54;12.52;;;4.70;;
22240;SDS011;11289;52.524;13.694;2023-11-19T12:59:20;15.90;;;4.07;;
22240;SDS011;11289;52.524;13.694;2023-11-19T13:01:55;14.18;;;4.07;;
22240;SDS011;11289;52.524;13.694;2023-11-19T13:04:21;15.70;;;3.95;;
22240;SDS011;11289;52.524;13.694;2023-11-19T13:06:47;15.40;;;3.92;;
22240;SDS011;11289;52.524;13.694;2023-11-19T13:09:23;11.63;;;3.42;;
22240;SDS011;11289;52.524;13.694;2023-11-19T13:11:50;16.40;;;4.35;;
22240;SDS011;11289;52.524;13.694;2023-11-19T13:14:17;14.80;;;3.88;;
22240;SDS011;11289;52.524;13.694;2023-11-19T13:16:43;17.48;;;3.65;;
22240;SDS011;11289;52.524;13.694;2023-11-19T13:19:11;13.88;;;3.95;;
22240;SDS011;11289;52.524;13.694;2023-11-19T13:21:37;17.85;;;3.65;;
22240;SDS011;11289;52.524;13.694;2023-11-19T13:24:03;13.63;;;3.70;;
22240;SDS011;11289;52.524;13.694;2023-11-19T13:26:29;14.68;;;4.18;;
22240;SDS011;11289;52.524;13.694;2023-11-19T13:28:55;19.15;;;4.22;;
22240;SDS011;11289;52.524;13.694;2023-11-19T13:31:21;14.07;;;3.75;;
22240;SDS011;11289;52.524;13.694;2023-11-19T13:33:47;19.35;;;3.78;;
22240;SDS011;11289;52.524;13.694;2023-11-19T13:36:13;16.42;;;4.13;;
22240;SDS011;11289;52.524;13.694;2023-11-19T13:38:39;19.25;;;4.93;;
22240;SDS011;11289;52.524;13.694;2023-11-19T13:41:09;16.75;;;5.13;;
22240;SDS011;11289;52.524;13.694;2023-11-19T13:43:37;21.98;;;5.25;;
22240;SDS011;11289;52.524;13.694;2023-11-19T13:46:03;14.98;;;4.50;;
22240;SDS011;11289;52.524;13.694;2023-11-19T13:48:29;16.20;;;4.72;;
22240;SDS011;11289;52.524;13.694;2023-11-19T13:50:55;16.95;;;6.60;;
22240;SDS011;11289;52.524;13.694;2023-11-19T13:53:21;21.15;;;5.57;;
22240;SDS011;11289;52.524;13.694;2023-11-19T13:55:49;17.85;;;4.28;;
22240;SDS011;11289;52.524;13.694;2023-11-19T13:58:15;26.30;;;4.40;;
22240;SDS011;11289;52.524;13.694;2023-11-19T14:00:41;20.02;;;4.97;;
22240;SDS011;11289;52.524;13.694;2023-11-19T14:03:09;21.80;;;8.68;;
22240;SDS011;11289;52.524;13.694;2023-11-19T14:05:38;19.08;;;7.75;;
22240;SDS011;11289;52.524;13.694;2023-11-19T14:08:04;23.92;;;8.13;;
22240;SDS011;11289;52.524;13.694;2023-11-19T14:10:37;19.73;;;6.35;;
22240;SDS011;11289;52.524;13.694;2023-11-19T14:13:06;17.58;;;5.75;;
22240;SDS011;11289;52.524;13.694;2023-11-19T14:15:32;15.85;;;4.75;;
22240;SDS011;11289;52.524;13.694;2023-11-19T14:17:58;15.77;;;3.85;;
22240;SDS011;11289;52.524;13.694;2023-11-19T14:20:24;17.95;;;4.53;;
22240;SDS011;11289;52.524;13.694;2023-11-19T14:22:51;16.42;;;4.95;;
22240;SDS011;11289;52.524;13.694;2023-11-19T14:25:18;20.15;;;4.78;;
22240;SDS011;11289;52.524;13.694;2023-11-19T14:27:44;15.27;;;4.05;;
22240;SDS011;11289;52.524;13.694;2023-11-19T14:30:12;17.23;;;3.97;;
22240;SDS011;11289;52.524;13.694;2023-11-19T14:32:42;24.13;;;9.20;;
22240;SDS011;11289;52.524;13.694;2023-11-19T14:35:10;19.90;;;6.32;;
22240;SDS011;11289;52.524;13.694;2023-11-19T14:37:36;22.38;;;5.70;;
22240;SDS011;11289;52.524;13.694;2023-11-19T14:40:02;16.20;;;4.75;;
22240;SDS011;11289;52.524;13.694;2023-11-19T14:42:32;17.20;;;3.78;;
22240;SDS011;11289;52.524;13.694;2023-11-19T14:44:58;19.30;;;5.63;;
22240;SDS011;11289;52.524;13.694;2023-11-19T14:47:24;21.75;;;4.55;;
22240;SDS011;11289;52.524;13.694;2023-11-19T14:49:50;17.23;;;4.43;;
22240;SDS011;11289;52.524;13.694;2023-11-19T14:52:17;19.58;;;5.05;;
22240;SDS011;11289;52.524;13.694;2023-11-19T14:54:43;15.25;;;4.53;;
22240;SDS011;11289;52.524;13.694;2023-11-19T14:57:09;16.52;;;4.68;;
22240;SDS011;11289;52.524;13.694;2023-11-19T14:59:35;17.38;;;5.28;;
22240;SDS011;11289;52.524;13.694;2023-11-19T15:02:02;19.35;;;4.78;;
22240;SDS011;11289;52.524;13.694;2023-11-19T15:04:28;10.82;;;4.30;;